Ecokeeper — SVTY — position and weather

sailwx.info

Track history (hours):
 
Tides and Currents Weather Stations Pressure Air Temp Water Temp Dewpoint Dewpoint Depression Visibility Wind Speed Wind Dir Waves Ship Positions

Ecokeeper

Last reported at 2014-Jul-30 08:34 UTC. Time now 2014-Jul-30 09:08 UTC.
Position N 38°01' E 023°35'.

Length 90 m; draft 6.5 m.

Type: Tanker. MMSI: 240689000.

Date/timePositionNaut miles runAvg speedWind from/ knotsBaromVisibWave heightAir tempDewpointWater temp
2014-Jul-30 08:34N 38°01' E 023°35'0 0.1
2014-Jul-30 07:33N 38°01' E 023°35'0 0.0
2014-Jul-30 06:30N 38°01' E 023°35'4 4.7
2014-Jul-30 05:34N 37°57' E 023°34'0 0.0
2014-Jul-28 12:24N 37°57' E 023°34'  
2014-Jul-24 11:33N 37°57' E 023°34'7 6.8
2014-Jul-24 10:31N 37°51' E 023°39'9 9.2
2014-Jul-24 09:33N 37°43' E 023°44'166 8.1
2014-Jul-23 13:04N 40°15' E 025°10'5 9.3
2014-Jul-23 12:30N 40°19' E 025°14'18 8.9
2014-Jul-23 10:31N 40°33' E 025°29'10 9.4
2014-Jul-23 09:30N 40°39' E 025°39'9 9.3
2014-Jul-23 08:33N 40°45' E 025°47'8 7.8
2014-Jul-23 07:33N 40°50' E 025°55'0 0.3
2014-Jul-23 06:33N 40°50' E 025°55'0 0.0
2014-Jul-23 05:33N 40°50' E 025°55'0 0.0
2014-Jul-23 04:33N 40°50' E 025°55'0 0.0
2014-Jul-23 03:33N 40°50' E 025°55'0 0.0
2014-Jul-23 02:33N 40°50' E 025°55'0 0.0
2014-Jul-23 01:33N 40°50' E 025°55'0 0.0
2014-Jul-23 00:33N 40°50' E 025°55'0 0.0
2014-Jul-22 23:33N 40°50' E 025°55'0 0.0
2014-Jul-22 22:33N 40°50' E 025°55'0 0.0
2014-Jul-22 21:33N 40°50' E 025°55'0 0.0
2014-Jul-22 20:33N 40°50' E 025°55'0 0.0
2014-Jul-22 19:33N 40°50' E 025°55'0 0.0
2014-Jul-22 18:33N 40°50' E 025°55'0 0.0
2014-Jul-22 17:33N 40°50' E 025°55'0 0.0
2014-Jul-22 16:33N 40°50' E 025°55'0 0.0
2014-Jul-22 15:33N 40°50' E 025°55'0 0.0
2014-Jul-22 14:33N 40°50' E 025°55'0 0.0
2014-Jul-22 13:33N 40°50' E 025°55'0 0.0
2014-Jul-22 12:33N 40°50' E 025°55'0 0.0
2014-Jul-22 11:33N 40°50' E 025°55'0 0.0
2014-Jul-22 10:33N 40°50' E 025°55'0 0.0
2014-Jul-22 09:33N 40°50' E 025°55'0 0.0
2014-Jul-22 08:33N 40°50' E 025°55'0 0.0
2014-Jul-22 07:33N 40°50' E 025°55'0 0.0
2014-Jul-22 06:33N 40°50' E 025°55'0 0.0
2014-Jul-22 05:33N 40°50' E 025°55'0 0.2
2014-Jul-22 04:33N 40°50' E 025°55'2 1.7
2014-Jul-22 03:33N 40°49' E 025°53'8 8.3
2014-Jul-22 02:33N 40°43' E 025°45'9 8.7
2014-Jul-22 01:33N 40°38' E 025°36'8 8.4
2014-Jul-22 00:33N 40°33' E 025°27'8 8.0
2014-Jul-21 23:33N 40°27' E 025°20'9 8.5
2014-Jul-21 22:32N 40°20' E 025°14'8 8.7
2014-Jul-21 21:33N 40°12' E 025°09'3 2.8
2014-Jul-21 20:23N 40°10' E 025°06'1 8.8
2014-Jul-21 20:18N 40°10' E 025°07'118 8.5
2014-Jul-21 06:27N 38°13' E 025°12'17 8.8
2014-Jul-21 04:33N 37°56' E 025°15'9 8.9
2014-Jul-21 03:31N 37°47' E 025°17'9 8.7
2014-Jul-21 02:31N 37°38' E 025°18'7 7.2
2014-Jul-21 01:33N 37°31' E 025°17'7 7.3
2014-Jul-21 00:33N 37°27' E 025°10'9 8.6
2014-Jul-20 23:33N 37°19' E 025°05'9 8.4
2014-Jul-20 22:32N 37°12' E 024°60'9 8.8
2014-Jul-20 21:33N 37°04' E 024°55'9 9.3
2014-Jul-20 20:32N 36°55' E 024°51'9 8.9
2014-Jul-20 19:33N 36°46' E 024°49'10 8.7
2014-Jul-20 18:25N 36°37' E 024°48'8 9.2
2014-Jul-20 17:33N 36°29' E 024°51'9 9.3
2014-Jul-20 16:33N 36°20' E 024°55'9 8.7
2014-Jul-20 15:33N 36°12' E 024°56'9 6.7
2014-Jul-20 14:17N 36°03' E 024°57'7 8.3
2014-Jul-20 13:30N 35°57' E 024°59'  
Track history (hours):
 
Tides and Currents Weather Stations Pressure Air Temp Water Temp Dewpoint Dewpoint Depression Visibility Wind Speed Wind Dir Waves Ship Positions

Ecokeeper

Last reported at 2014-Jul-30 08:34 UTC. Time now 2014-Jul-30 09:08 UTC.
Position N 38°01' E 023°35'.

Length 90 m; draft 6.5 m.

Type: Tanker. MMSI: 240689000.

Date/timePositionNaut miles runAvg speedWind from/ knotsBaromVisibWave heightAir tempDewpointWater temp
2014-Jul-30 08:34N 38°01' E 023°35'0 0.1
2014-Jul-30 07:33N 38°01' E 023°35'0 0.0
2014-Jul-30 06:30N 38°01' E 023°35'4 4.7
2014-Jul-30 05:34N 37°57' E 023°34'0 0.0
2014-Jul-28 12:24N 37°57' E 023°34'  
2014-Jul-24 11:33N 37°57' E 023°34'7 6.8
2014-Jul-24 10:31N 37°51' E 023°39'9 9.2
2014-Jul-24 09:33N 37°43' E 023°44'166 8.1
2014-Jul-23 13:04N 40°15' E 025°10'5 9.3
2014-Jul-23 12:30N 40°19' E 025°14'18 8.9
2014-Jul-23 10:31N 40°33' E 025°29'10 9.4
2014-Jul-23 09:30N 40°39' E 025°39'9 9.3
2014-Jul-23 08:33N 40°45' E 025°47'8 7.8
2014-Jul-23 07:33N 40°50' E 025°55'0 0.3
2014-Jul-23 06:33N 40°50' E 025°55'0 0.0
2014-Jul-23 05:33N 40°50' E 025°55'0 0.0
2014-Jul-23 04:33N 40°50' E 025°55'0 0.0
2014-Jul-23 03:33N 40°50' E 025°55'0 0.0
2014-Jul-23 02:33N 40°50' E 025°55'0 0.0
2014-Jul-23 01:33N 40°50' E 025°55'0 0.0
2014-Jul-23 00:33N 40°50' E 025°55'0 0.0
2014-Jul-22 23:33N 40°50' E 025°55'0 0.0
2014-Jul-22 22:33N 40°50' E 025°55'0 0.0
2014-Jul-22 21:33N 40°50' E 025°55'0 0.0
2014-Jul-22 20:33N 40°50' E 025°55'0 0.0
2014-Jul-22 19:33N 40°50' E 025°55'0 0.0
2014-Jul-22 18:33N 40°50' E 025°55'0 0.0
2014-Jul-22 17:33N 40°50' E 025°55'0 0.0
2014-Jul-22 16:33N 40°50' E 025°55'0 0.0
2014-Jul-22 15:33N 40°50' E 025°55'0 0.0
2014-Jul-22 14:33N 40°50' E 025°55'0 0.0
2014-Jul-22 13:33N 40°50' E 025°55'0 0.0
2014-Jul-22 12:33N 40°50' E 025°55'0 0.0
2014-Jul-22 11:33N 40°50' E 025°55'0 0.0
2014-Jul-22 10:33N 40°50' E 025°55'0 0.0
2014-Jul-22 09:33N 40°50' E 025°55'0 0.0
2014-Jul-22 08:33N 40°50' E 025°55'0 0.0
2014-Jul-22 07:33N 40°50' E 025°55'0 0.0
2014-Jul-22 06:33N 40°50' E 025°55'0 0.0
2014-Jul-22 05:33N 40°50' E 025°55'0 0.2
2014-Jul-22 04:33N 40°50' E 025°55'2 1.7
2014-Jul-22 03:33N 40°49' E 025°53'8 8.3
2014-Jul-22 02:33N 40°43' E 025°45'9 8.7
2014-Jul-22 01:33N 40°38' E 025°36'8 8.4
2014-Jul-22 00:33N 40°33' E 025°27'8 8.0
2014-Jul-21 23:33N 40°27' E 025°20'9 8.5
2014-Jul-21 22:32N 40°20' E 025°14'8 8.7
2014-Jul-21 21:33N 40°12' E 025°09'3 2.8
2014-Jul-21 20:23N 40°10' E 025°06'1 8.8
2014-Jul-21 20:18N 40°10' E 025°07'118 8.5
2014-Jul-21 06:27N 38°13' E 025°12'17 8.8
2014-Jul-21 04:33N 37°56' E 025°15'9 8.9
2014-Jul-21 03:31N 37°47' E 025°17'9 8.7
2014-Jul-21 02:31N 37°38' E 025°18'7 7.2
2014-Jul-21 01:33N 37°31' E 025°17'7 7.3
2014-Jul-21 00:33N 37°27' E 025°10'9 8.6
2014-Jul-20 23:33N 37°19' E 025°05'9 8.4
2014-Jul-20 22:32N 37°12' E 024°60'9 8.8
2014-Jul-20 21:33N 37°04' E 024°55'9 9.3
2014-Jul-20 20:32N 36°55' E 024°51'9 8.9
2014-Jul-20 19:33N 36°46' E 024°49'10 8.7
2014-Jul-20 18:25N 36°37' E 024°48'8 9.2
2014-Jul-20 17:33N 36°29' E 024°51'9 9.3
2014-Jul-20 16:33N 36°20' E 024°55'9 8.7
2014-Jul-20 15:33N 36°12' E 024°56'9 6.7
2014-Jul-20 14:17N 36°03' E 024°57'7 8.3
2014-Jul-20 13:30N 35°57' E 024°59'  

Dump ship's entire track history